Time;durP1;ratioP1;P1;durP2;ratioP2;P2;SDS_P1;SDS_P2;PMS_P1;PMS_P2;Temp;Humidity;BMP_temperature;BMP_pressure;BME280_temperature;BME280_humidity;BME280_pressure;Samples;Min_cycle;Max_cycle;Signal;HPM_P1;HPM_P2
2021/10/14 00:01:28;;;;;;;10.30;6.90;;;;;;;;;;5017244;28;20431;-64
2021/10/14 00:03:54;;;;;;;8.20;6.10;;;;;;;;;;5037092;22;20511;-66
2021/10/14 00:06:20;;;;;;;8.30;5.93;;;;;;;;;;5076625;28;20389;-66
2021/10/14 00:08:46;;;;;;;14.80;6.33;;;;;;;;;;5076471;28;20391;-66
2021/10/14 00:11:12;;;;;;;9.67;6.30;;;;;;;;;;5076694;28;20389;-66
2021/10/14 00:13:38;;;;;;;9.47;6.87;;;;;;;;;;5076368;28;20394;-66
2021/10/14 00:16:04;;;;;;;11.20;6.57;;;;;;;;;;5076214;28;20449;-66
2021/10/14 00:18:30;;;;;;;9.53;6.90;;;;;;;;;;5076493;28;20798;-66
2021/10/14 00:20:56;;;;;;;8.37;6.70;;;;;;;;;;5076145;28;20400;-65
2021/10/14 00:23:22;;;;;;;10.00;6.87;;;;;;;;;;5076167;28;20411;-67
2021/10/14 00:25:48;;;;;;;11.10;7.30;;;;;;;;;;5076144;28;20417;-66
2021/10/14 00:28:15;;;;;;;11.67;7.63;;;;;;;;;;5076720;28;20423;-67
2021/10/14 00:30:41;;;;;;;8.00;5.60;;;;;;;;;;5076060;28;20424;-67
2021/10/14 00:33:07;;;;;;;9.17;6.40;;;;;;;;;;5076104;28;20417;-66
2021/10/14 00:35:33;;;;;;;8.97;6.60;;;;;;;;;;5076226;28;20474;-66
2021/10/14 00:37:59;;;;;;;7.70;6.00;;;;;;;;;;5076193;28;20892;-66
2021/10/14 00:40:25;;;;;;;12.10;6.77;;;;;;;;;;5075706;28;20388;-66
2021/10/14 00:42:52;;;;;;;9.13;6.67;;;;;;;;;;5075748;28;20804;-66
2021/10/14 00:45:19;;;;;;;8.67;6.00;;;;;;;;;;5061602;28;20532;-66
2021/10/14 00:47:45;;;;;;;11.47;7.20;;;;;;;;;;5056186;28;20413;-66
2021/10/14 00:50:11;;;;;;;9.43;7.07;;;;;;;;;;5055837;28;20490;-65
2021/10/14 00:52:38;;;;;;;8.53;6.07;;;;;;;;;;5055995;28;20817;-66
2021/10/14 00:55:04;;;;;;;7.73;5.20;;;;;;;;;;5055434;28;20544;-66
2021/10/14 00:57:30;;;;;;;9.53;6.20;;;;;;;;;;5054578;28;20409;-66
2021/10/14 00:59:57;;;;;;;9.80;7.13;;;;;;;;;;5055656;28;20394;-66
2021/10/14 01:02:23;;;;;;;9.50;6.50;;;;;;;;;;5055576;28;20404;-65
2021/10/14 01:04:51;;;;;;;9.70;7.27;;;;;;;;;;5055367;28;20442;-66
2021/10/14 01:07:17;;;;;;;10.20;6.00;;;;;;;;;;5055673;28;20467;-68
2021/10/14 01:09:43;;;;;;;9.33;6.60;;;;;;;;;;5055369;28;20455;-68
2021/10/14 01:12:09;;;;;;;9.00;6.20;;;;;;;;;;5055571;28;20513;-65
2021/10/14 01:14:36;;;;;;;6.90;4.90;;;;;;;;;;5055360;28;20556;-67
2021/10/14 01:17:02;;;;;;;8.30;6.27;;;;;;;;;;5055471;28;20754;-67
2021/10/14 01:19:28;;;;;;;10.27;6.40;;;;;;;;;;5055255;28;20398;-67
2021/10/14 01:21:54;;;;;;;11.10;6.20;;;;;;;;;;5055189;28;20402;-66
2021/10/14 01:24:20;;;;;;;10.60;6.80;;;;;;;;;;5055106;28;20447;-66
2021/10/14 01:26:46;;;;;;;8.90;6.70;;;;;;;;;;5055070;28;20408;-67
2021/10/14 01:29:13;;;;;;;8.90;6.20;;;;;;;;;;5054875;28;20401;-67
2021/10/14 01:31:39;;;;;;;12.13;7.33;;;;;;;;;;5054889;28;20438;-66
2021/10/14 01:34:05;;;;;;;11.17;7.30;;;;;;;;;;5054776;28;20479;-66
2021/10/14 01:36:31;;;;;;;7.90;5.40;;;;;;;;;;5036967;28;20480;-66
2021/10/14 01:38:57;;;;;;;10.37;7.20;;;;;;;;;;5054895;28;20449;-66
2021/10/14 01:41:23;;;;;;;10.00;5.50;;;;;;;;;;5055311;28;20762;-65
2021/10/14 01:43:49;;;;;;;9.63;7.10;;;;;;;;;;5054635;28;20445;-65
2021/10/14 01:46:15;;;;;;;12.13;7.50;;;;;;;;;;5054668;28;20409;-65
2021/10/14 01:48:42;;;;;;;9.53;7.30;;;;;;;;;;5055026;28;20409;-65
2021/10/14 01:51:09;;;;;;;7.67;6.67;;;;;;;;;;5053666;28;20426;-65
2021/10/14 01:53:35;;;;;;;10.60;7.30;;;;;;;;;;5054154;28;20906;-66
2021/10/14 01:56:01;;;;;;;8.90;7.10;;;;;;;;;;5054189;28;20437;-66
2021/10/14 01:58:27;;;;;;;13.60;7.20;;;;;;;;;;5054440;28;20398;-66
2021/10/14 02:00:53;;;;;;;10.80;7.67;;;;;;;;;;5054348;28;20440;-65
2021/10/14 02:03:19;;;;;;;9.37;6.80;;;;;;;;;;5054355;28;20473;-66
2021/10/14 02:05:46;;;;;;;10.90;8.00;;;;;;;;;;5055026;28;20980;-66
2021/10/14 02:08:12;;;;;;;9.70;7.93;;;;;;;;;;5055399;28;20410;-66
2021/10/14 02:10:38;;;;;;;10.83;7.97;;;;;;;;;;5054955;28;20480;-67
2021/10/14 02:13:05;;;;;;;8.40;6.53;;;;;;;;;;5054058;28;20390;-67
2021/10/14 02:15:32;;;;;;;9.00;7.40;;;;;;;;;;5053892;28;20515;-67
2021/10/14 02:17:58;;;;;;;12.73;6.97;;;;;;;;;;5053958;28;20477;-67
2021/10/14 02:20:24;;;;;;;9.07;7.20;;;;;;;;;;5053924;28;20398;-66
2021/10/14 02:22:50;;;;;;;12.20;7.17;;;;;;;;;;5053821;28;20405;-66
2021/10/14 02:25:17;;;;;;;11.03;7.03;;;;;;;;;;5053720;28;20432;-66
2021/10/14 02:27:43;;;;;;;11.60;6.70;;;;;;;;;;5054147;28;20409;-66
2021/10/14 02:30:10;;;;;;;12.67;7.90;;;;;;;;;;5053720;28;20409;-66
2021/10/14 02:32:36;;;;;;;11.03;7.03;;;;;;;;;;5053865;28;20404;-66
2021/10/14 02:35:03;;;;;;;9.67;6.67;;;;;;;;;;5053765;28;20535;-66
2021/10/14 02:37:29;;;;;;;8.53;6.57;;;;;;;;;;5053849;28;20413;-66
2021/10/14 02:39:55;;;;;;;9.20;6.70;;;;;;;;;;5053657;28;20391;-66
2021/10/14 02:42:21;;;;;;;10.90;6.30;;;;;;;;;;5053517;28;20455;-66
2021/10/14 02:44:47;;;;;;;10.90;7.50;;;;;;;;;;5053339;28;20430;-67
2021/10/14 02:47:13;;;;;;;11.70;7.93;;;;;;;;;;5053806;28;20406;-66
2021/10/14 02:49:39;;;;;;;11.00;7.93;;;;;;;;;;5053939;28;20401;-66
2021/10/14 02:52:06;;;;;;;10.10;7.23;;;;;;;;;;5054158;28;20456;-66
2021/10/14 02:54:32;;;;;;;10.57;8.87;;;;;;;;;;5053324;28;20488;-66
2021/10/14 02:56:58;;;;;;;12.27;8.03;;;;;;;;;;5057513;28;20428;-65
2021/10/14 02:59:24;;;;;;;12.10;7.03;;;;;;;;;;5066179;28;20532;-66
2021/10/14 03:01:51;;;;;;;10.00;7.53;;;;;;;;;;5061335;28;20405;-66
2021/10/14 03:04:17;;;;;;;11.20;8.13;;;;;;;;;;5054054;28;20446;-66
2021/10/14 03:06:43;;;;;;;12.10;8.17;;;;;;;;;;5053421;28;20398;-66
2021/10/14 03:09:09;;;;;;;9.10;7.63;;;;;;;;;;5053313;28;20902;-66
2021/10/14 03:11:35;;;;;;;10.10;7.73;;;;;;;;;;5053142;28;20406;-66
2021/10/14 03:14:01;;;;;;;11.00;7.70;;;;;;;;;;5053070;28;20870;-66
2021/10/14 03:16:27;;;;;;;10.40;8.23;;;;;;;;;;5053196;28;20408;-66
2021/10/14 03:18:55;;;;;;;13.43;8.50;;;;;;;;;;5053002;28;20406;-65
2021/10/14 03:21:21;;;;;;;12.90;9.37;;;;;;;;;;5052732;28;20492;-65
2021/10/14 03:23:47;;;;;;;11.73;8.47;;;;;;;;;;5057525;28;20432;-65
2021/10/14 03:26:13;;;;;;;11.60;8.87;;;;;;;;;;5066780;28;20413;-66
2021/10/14 03:28:39;;;;;;;10.20;7.40;;;;;;;;;;5073248;28;20404;-66
2021/10/14 03:31:05;;;;;;;12.30;8.23;;;;;;;;;;5073006;28;20412;-65
2021/10/14 03:33:31;;;;;;;11.80;8.50;;;;;;;;;;5073040;28;20401;-65
2021/10/14 03:35:57;;;;;;;12.00;8.03;;;;;;;;;;5072757;28;20501;-65
2021/10/14 03:38:24;;;;;;;14.30;9.00;;;;;;;;;;5072991;28;20401;-66
2021/10/14 03:40:50;;;;;;;10.83;8.50;;;;;;;;;;5072884;28;20439;-66
2021/10/14 03:43:16;;;;;;;11.00;9.07;;;;;;;;;;5069220;28;20462;-66
2021/10/14 03:45:43;;;;;;;13.30;8.73;;;;;;;;;;5053026;28;20430;-66
2021/10/14 03:48:09;;;;;;;14.67;9.07;;;;;;;;;;5052820;28;20410;-66
2021/10/14 03:50:35;;;;;;;12.77;8.30;;;;;;;;;;5052773;28;20402;-66
2021/10/14 03:53:01;;;;;;;14.07;9.60;;;;;;;;;;5052707;28;20886;-65
2021/10/14 03:55:27;;;;;;;13.50;10.17;;;;;;;;;;5052498;28;20471;-67
2021/10/14 03:57:53;;;;;;;13.93;9.23;;;;;;;;;;5063661;28;20417;-68
2021/10/14 04:00:19;;;;;;;12.50;9.20;;;;;;;;;;5072911;28;20401;-67
2021/10/14 04:02:45;;;;;;;14.10;9.63;;;;;;;;;;5072818;28;20397;-66
2021/10/14 04:05:11;;;;;;;12.37;9.50;;;;;;;;;;5072605;28;20445;-66
2021/10/14 04:07:37;;;;;;;13.10;9.77;;;;;;;;;;5072741;28;20401;-66
2021/10/14 04:10:04;;;;;;;12.47;9.10;;;;;;;;;;5061491;28;20425;-66
2021/10/14 04:12:30;;;;;;;13.40;9.87;;;;;;;;;;5052536;28;20886;-66
2021/10/14 04:14:56;;;;;;;13.33;9.80;;;;;;;;;;5052755;28;20441;-66
2021/10/14 04:17:22;;;;;;;14.33;11.23;;;;;;;;;;5052868;28;20931;-66
2021/10/14 04:19:48;;;;;;;16.33;12.10;;;;;;;;;;5052819;28;20853;-66
2021/10/14 04:22:14;;;;;;;13.27;9.63;;;;;;;;;;5052771;28;20516;-66
2021/10/14 04:24:41;;;;;;;14.23;9.83;;;;;;;;;;5052651;28;20425;-66
2021/10/14 04:27:07;;;;;;;14.57;10.23;;;;;;;;;;5052450;28;20485;-66
2021/10/14 04:29:33;;;;;;;16.00;9.93;;;;;;;;;;5052903;28;20398;-65
2021/10/14 04:32:00;;;;;;;15.17;11.27;;;;;;;;;;5055146;28;20410;-66
2021/10/14 04:34:26;;;;;;;15.07;10.03;;;;;;;;;;5056020;28;20472;-66
2021/10/14 04:36:52;;;;;;;18.23;11.27;;;;;;;;;;5056369;28;20825;-66
2021/10/14 04:39:21;;;;;;;15.97;10.10;;;;;;;;;;5056293;28;20409;-65
2021/10/14 04:41:47;;;;;;;14.40;10.47;;;;;;;;;;5057139;28;20937;-66
2021/10/14 04:44:13;;;;;;;14.27;11.03;;;;;;;;;;5075752;28;20425;-66
2021/10/14 04:46:39;;;;;;;14.47;11.30;;;;;;;;;;5076601;28;21036;-66
2021/10/14 04:49:05;;;;;;;17.13;11.87;;;;;;;;;;5075911;28;20431;-66
2021/10/14 04:51:31;;;;;;;15.87;11.90;;;;;;;;;;5075850;28;20462;-66
2021/10/14 04:53:57;;;;;;;13.30;10.23;;;;;;;;;;5075807;28;20427;-66
2021/10/14 04:56:23;;;;;;;12.63;9.70;;;;;;;;;;5075828;28;20404;-66
2021/10/14 04:58:49;;;;;;;14.07;10.67;;;;;;;;;;5075700;28;20951;-66
2021/10/14 05:01:15;;;;;;;13.03;11.33;;;;;;;;;;5075833;28;20401;-66
2021/10/14 05:03:43;;;;;;;19.37;10.47;;;;;;;;;;5075331;28;20419;-68
2021/10/14 05:06:09;;;;;;;15.87;11.33;;;;;;;;;;5075809;28;20385;-68
2021/10/14 05:08:35;;;;;;;13.43;10.10;;;;;;;;;;5075532;28;20397;-68
2021/10/14 05:11:01;;;;;;;14.77;9.43;;;;;;;;;;5075264;28;20401;-67
2021/10/14 05:13:27;;;;;;;16.40;10.47;;;;;;;;;;5075298;28;20421;-67
2021/10/14 05:15:53;;;;;;;20.27;11.60;;;;;;;;;;5075442;28;20466;-67
2021/10/14 05:18:19;;;;;;;14.83;10.10;;;;;;;;;;5075795;28;20397;-67
2021/10/14 05:20:45;;;;;;;17.30;11.10;;;;;;;;;;5075294;28;20428;-67
2021/10/14 05:23:11;;;;;;;17.10;10.03;;;;;;;;;;5075273;28;20458;-67
2021/10/14 05:25:37;;;;;;;13.00;9.60;;;;;;;;;;5074992;28;20929;-66
2021/10/14 05:28:03;;;;;;;16.80;11.23;;;;;;;;;;5075319;28;20881;-67
2021/10/14 05:30:29;;;;;;;15.73;10.60;;;;;;;;;;5075304;28;20881;-67
2021/10/14 05:32:56;;;;;;;16.50;10.87;;;;;;;;;;5074981;28;20432;-66
2021/10/14 05:35:22;;;;;;;17.03;10.40;;;;;;;;;;5075056;28;20445;-66
2021/10/14 05:37:48;;;;;;;16.83;10.47;;;;;;;;;;5075035;28;20412;-66
2021/10/14 05:40:14;;;;;;;15.17;10.60;;;;;;;;;;5075047;28;20431;-66
2021/10/14 05:42:40;;;;;;;17.43;10.43;;;;;;;;;;5065784;28;20402;-67
2021/10/14 05:45:06;;;;;;;16.67;11.10;;;;;;;;;;5055022;28;20429;-67
2021/10/14 05:47:32;;;;;;;187.80;137.53;;;;;;;;;;5054877;28;20414;-66
2021/10/14 05:49:59;;;;;;;19.57;12.57;;;;;;;;;;5054861;28;20421;-67
2021/10/14 05:52:25;;;;;;;17.70;11.70;;;;;;;;;;5055834;28;20898;-66
2021/10/14 05:54:51;;;;;;;14.60;10.87;;;;;;;;;;5054514;28;20488;-66
2021/10/14 05:57:19;;;;;;;19.20;11.53;;;;;;;;;;5054897;28;20413;-66
2021/10/14 05:59:45;;;;;;;13.80;10.00;;;;;;;;;;5054804;28;20421;-67
2021/10/14 06:02:11;;;;;;;12.30;9.50;;;;;;;;;;5054744;28;20398;-66
2021/10/14 06:04:43;;;;;;;16.20;10.27;;;;;;;;;;5062697;28;20543;-66
2021/10/14 06:07:09;;;;;;;14.33;9.40;;;;;;;;;;5071913;28;20417;-66
2021/10/14 06:09:35;;;;;;;12.67;9.97;;;;;;;;;;5070556;28;20482;-66
2021/10/14 06:12:01;;;;;;;14.30;10.70;;;;;;;;;;5068242;28;21787;-67
2021/10/14 06:14:27;;;;;;;13.90;9.50;;;;;;;;;;5057189;28;20541;-66
2021/10/14 06:16:53;;;;;;;15.47;10.27;;;;;;;;;;5073824;28;20405;-67
2021/10/14 06:19:19;;;;;;;13.80;11.00;;;;;;;;;;5074240;28;20851;-66
2021/10/14 06:21:46;;;;;;;15.60;9.70;;;;;;;;;;5073802;28;20400;-67
2021/10/14 06:24:12;;;;;;;15.00;10.80;;;;;;;;;;5073644;28;20425;-67
2021/10/14 06:26:38;;;;;;;12.33;9.70;;;;;;;;;;5073930;28;20401;-67
2021/10/14 06:29:04;;;;;;;13.57;9.30;;;;;;;;;;5073551;28;20401;-67
2021/10/14 06:31:30;;;;;;;15.47;11.00;;;;;;;;;;5073930;28;20413;-69
2021/10/14 06:33:56;;;;;;;13.30;10.23;;;;;;;;;;5073948;28;20429;-67
2021/10/14 06:36:23;;;;;;;10.40;8.20;;;;;;;;;;5073442;28;20876;-67
2021/10/14 06:38:49;;;;;;;13.30;9.60;;;;;;;;;;5073266;28;20397;-67
2021/10/14 06:41:15;;;;;;;13.70;9.83;;;;;;;;;;5055668;28;20443;-68
2021/10/14 06:43:42;;;;;;;11.67;9.30;;;;;;;;;;5073379;28;20417;-67
2021/10/14 06:46:08;;;;;;;13.30;10.33;;;;;;;;;;5073314;28;20401;-67
2021/10/14 06:48:34;;;;;;;17.60;10.10;;;;;;;;;;5073406;28;20413;-67
2021/10/14 06:51:00;;;;;;;13.77;10.10;;;;;;;;;;5072728;28;20511;-67
2021/10/14 06:53:26;;;;;;;15.27;9.83;;;;;;;;;;5073047;28;20455;-67
2021/10/14 06:55:52;;;;;;;16.77;10.07;;;;;;;;;;5070811;28;20463;-68
2021/10/14 06:58:19;;;;;;;12.23;9.93;;;;;;;;;;5057590;28;20504;-67
2021/10/14 07:00:45;;;;;;;13.50;9.40;;;;;;;;;;5061955;28;20452;-65
2021/10/14 07:03:11;;;;;;;15.77;10.10;;;;;;;;;;5066842;28;20416;-66
2021/10/14 07:05:37;;;;;;;14.10;10.00;;;;;;;;;;5072204;28;21083;-65
2021/10/14 07:08:03;;;;;;;14.13;9.40;;;;;;;;;;5072095;28;20770;-65
2021/10/14 07:10:29;;;;;;;14.57;9.70;;;;;;;;;;5072780;28;20452;-66
2021/10/14 07:12:56;;;;;;;14.10;8.97;;;;;;;;;;5067939;28;20421;-65
2021/10/14 07:15:22;;;;;;;16.13;9.90;;;;;;;;;;5071933;28;20539;-66
2021/10/14 07:17:48;;;;;;;12.37;9.20;;;;;;;;;;5072480;28;20506;-66
2021/10/14 07:20:14;;;;;;;14.63;11.07;;;;;;;;;;5073271;28;20440;-66
2021/10/14 07:22:40;;;;;;;12.23;8.33;;;;;;;;;;5072617;28;20470;-66
2021/10/14 07:25:06;;;;;;;11.83;9.20;;;;;;;;;;5073618;28;20928;-66
2021/10/14 07:27:32;;;;;;;13.50;8.43;;;;;;;;;;5078662;28;20476;-66
2021/10/14 07:29:59;;;;;;;8.97;7.73;;;;;;;;;;5075323;28;20417;-66
2021/10/14 07:32:25;;;;;;;12.20;7.87;;;;;;;;;;5073579;28;20499;-66
2021/10/14 07:34:51;;;;;;;11.37;7.90;;;;;;;;;;5073180;28;20539;-66
2021/10/14 07:37:19;;;;;;;12.27;8.00;;;;;;;;;;5070941;28;20440;-66
2021/10/14 07:39:46;;;;;;;11.77;8.10;;;;;;;;;;5061842;28;20504;-65
2021/10/14 07:42:12;;;;;;;13.20;8.87;;;;;;;;;;5067944;28;20503;-67
2021/10/14 07:44:38;;;;;;;10.87;7.73;;;;;;;;;;5071754;28;20907;-73
2021/10/14 07:47:05;;;;;;;12.77;8.03;;;;;;;;;;5067667;28;20532;-76
2021/10/14 07:49:31;;;;;;;10.93;7.70;;;;;;;;;;5060201;28;20504;-70
2021/10/14 07:51:58;;;;;;;12.60;8.57;;;;;;;;;;5070512;28;20440;-64
2021/10/14 07:54:24;;;;;;;11.73;8.90;;;;;;;;;;5069088;28;21019;-65
2021/10/14 07:56:50;;;;;;;8.83;7.67;;;;;;;;;;5069002;28;20507;-65
2021/10/14 07:59:16;;;;;;;10.40;8.27;;;;;;;;;;5063299;28;20429;-70
2021/10/14 08:01:43;;;;;;;13.63;6.43;;;;;;;;;;5066777;28;20421;-70
2021/10/14 08:04:09;;;;;;;10.10;7.30;;;;;;;;;;5066824;28;20537;-74
2021/10/14 08:06:35;;;;;;;7.77;6.80;;;;;;;;;;5073134;28;20413;-69
2021/10/14 08:09:02;;;;;;;9.50;6.97;;;;;;;;;;5074211;28;20426;-69
2021/10/14 08:11:28;;;;;;;7.07;5.23;;;;;;;;;;5074077;28;20913;-68
2021/10/14 08:13:54;;;;;;;8.10;5.43;;;;;;;;;;5079499;28;20462;-68
2021/10/14 08:16:20;;;;;;;5.93;4.53;;;;;;;;;;5055777;28;20543;-67
2021/10/14 08:18:46;;;;;;;5.90;5.30;;;;;;;;;;5075547;28;20432;-68
2021/10/14 08:21:12;;;;;;;10.13;5.77;;;;;;;;;;5074869;28;20422;-67
2021/10/14 08:23:38;;;;;;;7.80;5.30;;;;;;;;;;5069342;28;20417;-67
2021/10/14 08:26:04;;;;;;;6.70;4.93;;;;;;;;;;5075390;28;20417;-68
2021/10/14 08:28:31;;;;;;;6.47;4.93;;;;;;;;;;5074669;28;20424;-71
2021/10/14 08:30:57;;;;;;;6.87;4.33;;;;;;;;;;5074140;28;20423;-71
2021/10/14 08:33:23;;;;;;;6.90;4.90;;;;;;;;;;5074015;28;20424;-69
2021/10/14 08:35:49;;;;;;;5.40;4.77;;;;;;;;;;5073980;28;20534;-70
2021/10/14 08:38:15;;;;;;;4.93;3.80;;;;;;;;;;5078437;28;20407;-67
2021/10/14 08:40:42;;;;;;;7.70;4.27;;;;;;;;;;5078654;28;20479;-65
2021/10/14 08:43:13;;;;;;;7.73;4.47;;;;;;;;;;5073196;28;20424;-65
2021/10/14 08:45:40;;;;;;;5.77;4.73;;;;;;;;;;5072785;28;20948;-66
2021/10/14 08:48:06;;;;;;;6.30;4.50;;;;;;;;;;5080370;28;20423;-66
2021/10/14 08:50:33;;;;;;;4.80;3.77;;;;;;;;;;5073486;28;20481;-68
2021/10/14 08:53:00;;;;;;;6.27;4.40;;;;;;;;;;5073203;28;20416;-67
2021/10/14 08:55:27;;;;;;;5.50;4.23;;;;;;;;;;5073413;28;20448;-64
2021/10/14 08:57:53;;;;;;;6.83;3.77;;;;;;;;;;5073906;28;20405;-65
2021/10/14 09:00:19;;;;;;;6.23;4.00;;;;;;;;;;5072122;28;20441;-65
2021/10/14 09:02:46;;;;;;;6.60;3.60;;;;;;;;;;5074218;28;20824;-65
2021/10/14 09:05:14;;;;;;;4.90;3.33;;;;;;;;;;5073155;28;20492;-65
2021/10/14 09:07:41;;;;;;;5.37;3.67;;;;;;;;;;5072684;28;20482;-65
2021/10/14 09:10:12;;;;;;;5.83;3.80;;;;;;;;;;5069110;28;20544;-65
2021/10/14 09:12:40;;;;;;;4.33;3.20;;;;;;;;;;5067906;28;20941;-65
2021/10/14 09:15:06;;;;;;;5.17;3.83;;;;;;;;;;5072263;28;20513;-64
2021/10/14 09:17:38;;;;;;;4.43;3.17;;;;;;;;;;5070585;28;20969;-64
2021/10/14 09:20:23;;;;;;;4.47;3.33;;;;;;;;;;5073604;28;20444;-64
2021/10/14 09:23:12;;;;;;;4.80;2.80;;;;;;;;;;5072385;28;20498;-64
2021/10/14 09:25:38;;;;;;;4.50;3.40;;;;;;;;;;5057372;28;20498;-65
2021/10/14 09:28:10;;;;;;;3.77;2.93;;;;;;;;;;5071509;28;20417;-64
2021/10/14 09:30:50;;;;;;;6.00;3.13;;;;;;;;;;5071557;28;20471;-65
2021/10/14 09:33:35;;;;;;;3.67;2.33;;;;;;;;;;5071223;28;20397;-65
2021/10/14 09:36:20;;;;;;;2.77;2.17;;;;;;;;;;5055590;28;20444;-64
2021/10/14 09:38:54;;;;;;;4.17;2.50;;;;;;;;;;5072228;28;20913;-65
2021/10/14 09:41:22;;;;;;;4.70;2.90;;;;;;;;;;5072393;28;20424;-65
2021/10/14 09:43:49;;;;;;;8.27;2.77;;;;;;;;;;5072947;28;20405;-65
2021/10/14 09:46:35;;;;;;;5.97;2.90;;;;;;;;;;5054998;28;20423;-65
2021/10/14 09:49:02;;;;;;;4.80;2.73;;;;;;;;;;5072303;28;20450;-65
2021/10/14 09:51:28;;;;;;;4.50;2.70;;;;;;;;;;5073624;28;20425;-63
2021/10/14 09:53:55;;;;;;;5.13;2.97;;;;;;;;;;5072739;28;20911;-65
2021/10/14 09:56:21;;;;;;;4.43;3.20;;;;;;;;;;5071913;28;20734;-64
2021/10/14 09:58:47;;;;;;;3.57;2.90;;;;;;;;;;5055134;28;20430;-65
2021/10/14 10:01:13;;;;;;;4.20;2.63;;;;;;;;;;5072020;28;20413;-65
2021/10/14 10:03:39;;;;;;;4.20;3.30;;;;;;;;;;5040334;28;20417;-66
2021/10/14 10:06:07;;;;;;;4.40;2.90;;;;;;;;;;5071872;28;20478;-65
2021/10/14 10:08:41;;;;;;;5.53;3.40;;;;;;;;;;5071480;28;20451;-65
2021/10/14 10:11:10;;;;;;;8.53;3.23;;;;;;;;;;5045108;28;20433;-65
2021/10/14 10:13:37;;;;;;;4.83;3.77;;;;;;;;;;5071238;28;20425;-65
2021/10/14 10:16:18;;;;;;;7.93;4.70;;;;;;;;;;5070786;28;20456;-67
2021/10/14 10:18:45;;;;;;;6.20;3.60;;;;;;;;;;5071403;28;20763;-65
2021/10/14 10:21:29;;;;;;;6.40;4.60;;;;;;;;;;5071273;28;20500;-66
2021/10/14 10:23:55;;;;;;;5.30;3.37;;;;;;;;;;5072299;28;20498;-66
2021/10/14 10:26:36;;;;;;;4.90;3.57;;;;;;;;;;5072154;28;20417;-66
2021/10/14 10:29:14;;;;;;;5.93;4.20;;;;;;;;;;5054038;28;20421;-66
2021/10/14 10:31:48;;;;;;;4.27;2.93;;;;;;;;;;5071241;28;20420;-67
2021/10/14 10:35:14;;;;;;;4.00;2.90;;;;;;;;;;5072664;28;20519;-66
2021/10/14 10:37:25;;;;;;;3.80;3.40;;;;;;;;;;5055434;28;20743;-66
2021/10/14 10:39:54;;;;;;;7.10;3.53;;;;;;;;;;5072510;28;20770;-66
2021/10/14 10:42:23;;;;;;;5.13;3.70;;;;;;;;;;5071390;28;20746;-66
2021/10/14 10:44:50;;;;;;;3.80;3.17;;;;;;;;;;5060668;28;20957;-66
2021/10/14 10:47:35;;;;;;;6.90;3.97;;;;;;;;;;5069733;28;20731;-66
2021/10/14 10:50:02;;;;;;;5.00;3.70;;;;;;;;;;5072271;28;20490;-66
2021/10/14 10:52:38;;;;;;;5.80;3.90;;;;;;;;;;5062519;28;20412;-66
2021/10/14 10:55:22;;;;;;;8.30;4.70;;;;;;;;;;5070847;28;20452;-66
2021/10/14 10:57:50;;;;;;;8.60;3.90;;;;;;;;;;5069044;28;20428;-66
2021/10/14 11:00:17;;;;;;;5.90;3.80;;;;;;;;;;5072193;28;20775;-66
2021/10/14 11:02:43;;;;;;;4.70;3.90;;;;;;;;;;5070543;28;20413;-65
2021/10/14 11:05:10;;;;;;;4.90;3.33;;;;;;;;;;5071088;28;20964;-65
2021/10/14 11:07:36;;;;;;;10.57;3.37;;;;;;;;;;5072164;28;20823;-65
2021/10/14 11:10:03;;;;;;;7.13;4.27;;;;;;;;;;5071560;28;20420;-65
2021/10/14 11:12:29;;;;;;;4.40;3.90;;;;;;;;;;5064311;28;20831;-65
2021/10/14 11:14:55;;;;;;;4.63;3.07;;;;;;;;;;5070196;28;20452;-65
2021/10/14 11:17:25;;;;;;;5.20;3.43;;;;;;;;;;5070167;28;20436;-65
2021/10/14 11:20:03;;;;;;;5.23;3.90;;;;;;;;;;5069900;28;20417;-64
2021/10/14 11:22:29;;;;;;;4.67;3.27;;;;;;;;;;5065893;28;20404;-64
2021/10/14 11:24:59;;;;;;;7.60;2.97;;;;;;;;;;5051871;28;20436;-65
2021/10/14 11:27:25;;;;;;;5.00;2.70;;;;;;;;;;5072167;28;20523;-65
2021/10/14 11:29:52;;;;;;;3.90;2.97;;;;;;;;;;5071496;28;20475;-65
2021/10/14 11:32:29;;;;;;;7.70;3.67;;;;;;;;;;5073525;28;20420;-65
2021/10/14 11:34:55;;;;;;;6.57;3.30;;;;;;;;;;5076059;28;20982;-65
2021/10/14 11:37:21;;;;;;;4.77;3.00;;;;;;;;;;5071478;28;20763;-65
2021/10/14 11:39:49;;;;;;;5.23;3.00;;;;;;;;;;5051831;28;20471;-65
2021/10/14 11:42:16;;;;;;;4.47;3.50;;;;;;;;;;5064452;28;20417;-65
2021/10/14 11:44:44;;;;;;;3.83;2.83;;;;;;;;;;5066776;28;20436;-65
2021/10/14 11:47:14;;;;;;;4.37;2.90;;;;;;;;;;5068342;28;20408;-65
2021/10/14 11:49:40;;;;;;;7.40;2.80;;;;;;;;;;5075158;28;20769;-65
2021/10/14 11:52:07;;;;;;;4.53;2.77;;;;;;;;;;5071834;28;20882;-65
2021/10/14 11:54:35;;;;;;;5.90;2.77;;;;;;;;;;5073002;28;20991;-65
2021/10/14 11:57:02;;;;;;;7.10;3.00;;;;;;;;;;5076275;28;20416;-65
2021/10/14 11:59:29;;;;;;;3.33;2.40;;;;;;;;;;5076809;28;20412;-65
2021/10/14 12:02:12;;;;;;;5.40;2.70;;;;;;;;;;5072259;28;20785;-65
2021/10/14 12:04:53;;;;;;;3.53;2.50;;;;;;;;;;5074808;28;20491;-66
2021/10/14 12:07:29;;;;;;;3.43;2.23;;;;;;;;;;5070043;28;20411;-65
2021/10/14 12:09:56;;;;;;;4.17;2.53;;;;;;;;;;5070069;28;20912;-65
2021/10/14 12:12:24;;;;;;;4.20;2.17;;;;;;;;;;5070910;28;20433;-65
2021/10/14 12:15:03;;;;;;;5.70;2.63;;;;;;;;;;5070298;28;20893;-65
2021/10/14 12:17:39;;;;;;;3.30;2.00;;;;;;;;;;5069458;28;20396;-65
2021/10/14 12:20:11;;;;;;;5.40;2.13;;;;;;;;;;5068760;28;20458;-66
2021/10/14 12:22:44;;;;;;;4.40;2.70;;;;;;;;;;5074546;28;20416;-65
2021/10/14 12:25:11;;;;;;;6.50;2.60;;;;;;;;;;5060461;28;20508;-65
2021/10/14 12:27:48;;;;;;;4.83;2.97;;;;;;;;;;5070546;28;20420;-65
2021/10/14 12:30:18;;;;;;;8.20;2.53;;;;;;;;;;5083677;22;20546;-63
2021/10/14 12:32:44;;;;;;;3.30;2.50;;;;;;;;;;5049053;28;20508;-61
2021/10/14 12:35:12;;;;;;;4.90;2.90;;;;;;;;;;5051004;28;20449;-62
2021/10/14 12:37:38;;;;;;;3.53;2.47;;;;;;;;;;5053726;28;20783;-61
2021/10/14 12:40:14;;;;;;;6.73;4.63;;;;;;;;;;5050017;28;20828;-62
2021/10/14 12:42:51;;;;;;;3.90;2.60;;;;;;;;;;5045155;28;20422;-63
2021/10/14 12:45:30;;;;;;;4.20;2.73;;;;;;;;;;5048279;28;20442;-63
2021/10/14 12:48:09;;;;;;;5.47;3.07;;;;;;;;;;5050420;28;21059;-61
2021/10/14 12:50:54;;;;;;;3.50;2.33;;;;;;;;;;5055011;28;20428;-62
2021/10/14 12:53:20;;;;;;;3.77;2.40;;;;;;;;;;5051502;28;20796;-63
2021/10/14 12:56:00;;;;;;;4.97;2.50;;;;;;;;;;5049695;28;21029;-62
2021/10/14 12:58:27;;;;;;;5.17;2.50;;;;;;;;;;5056663;28;20517;-61
2021/10/14 13:01:20;;;;;;;3.40;2.70;;;;;;;;;;5051924;28;20432;-60
2021/10/14 13:03:49;;;;;;;3.20;2.30;;;;;;;;;;5050663;28;20458;-62
2021/10/14 13:06:15;;;;;;;3.73;2.40;;;;;;;;;;5053312;28;20504;-61
2021/10/14 13:08:43;;;;;;;4.90;2.30;;;;;;;;;;5052497;28;20476;-62
2021/10/14 13:11:13;;;;;;;3.73;2.53;;;;;;;;;;5052237;28;20802;-62
2021/10/14 13:13:40;;;;;;;3.87;2.33;;;;;;;;;;5036924;28;20406;-64
2021/10/14 13:16:07;;;;;;;4.83;2.40;;;;;;;;;;5050510;28;20441;-62
2021/10/14 13:18:33;;;;;;;3.57;2.40;;;;;;;;;;5052368;28;20418;-63
2021/10/14 13:21:00;;;;;;;2.63;2.00;;;;;;;;;;5044179;28;20442;-64
2021/10/14 13:23:27;;;;;;;5.50;2.60;;;;;;;;;;5050906;28;20965;-62
2021/10/14 13:25:54;;;;;;;7.43;2.60;;;;;;;;;;5033359;28;20414;-62
2021/10/14 13:28:20;;;;;;;5.63;2.43;;;;;;;;;;5031122;28;20425;-63
2021/10/14 13:30:47;;;;;;;3.40;2.33;;;;;;;;;;5052195;28;20502;-62
2021/10/14 13:33:16;;;;;;;3.40;2.47;;;;;;;;;;5049684;28;20414;-62
2021/10/14 13:35:45;;;;;;;4.77;2.20;;;;;;;;;;5050819;28;21342;-63
2021/10/14 13:38:11;;;;;;;3.70;1.90;;;;;;;;;;5049999;28;20512;-62
2021/10/14 13:40:40;;;;;;;3.90;1.87;;;;;;;;;;5052990;28;20445;-62
2021/10/14 13:43:11;;;;;;;3.60;2.37;;;;;;;;;;5053698;28;20422;-65
2021/10/14 13:45:37;;;;;;;4.03;2.77;;;;;;;;;;5035577;28;20475;-64
2021/10/14 13:48:03;;;;;;;2.97;2.27;;;;;;;;;;5043204;28;20415;-65
2021/10/14 13:50:29;;;;;;;3.73;2.43;;;;;;;;;;5047539;28;20843;-64
2021/10/14 13:52:55;;;;;;;3.70;2.17;;;;;;;;;;5035396;28;20914;-63
2021/10/14 13:55:21;;;;;;;4.40;2.80;;;;;;;;;;5046069;28;20975;-64
2021/10/14 13:57:47;;;;;;;4.20;2.57;;;;;;;;;;5053280;28;20419;-63
2021/10/14 14:00:13;;;;;;;3.97;2.80;;;;;;;;;;5030377;28;20464;-63
2021/10/14 14:02:39;;;;;;;6.43;3.00;;;;;;;;;;5046479;28;20430;-63
2021/10/14 14:05:05;;;;;;;3.87;2.67;;;;;;;;;;5049872;28;20436;-61
2021/10/14 14:07:32;;;;;;;4.30;2.70;;;;;;;;;;5052694;28;20437;-62
2021/10/14 14:09:58;;;;;;;4.80;2.87;;;;;;;;;;5050538;28;20468;-62
2021/10/14 14:12:25;;;;;;;3.00;2.43;;;;;;;;;;5049404;28;20906;-63
2021/10/14 14:14:51;;;;;;;3.67;2.33;;;;;;;;;;5053805;28;20462;-65
2021/10/14 14:17:17;;;;;;;3.20;2.20;;;;;;;;;;5052838;28;20755;-62
2021/10/14 14:19:43;;;;;;;5.00;2.47;;;;;;;;;;5049126;28;20532;-61
2021/10/14 14:22:12;;;;;;;4.87;2.57;;;;;;;;;;5046962;28;20411;-63
2021/10/14 14:24:38;;;;;;;4.17;2.80;;;;;;;;;;5045739;28;20425;-62
2021/10/14 14:27:04;;;;;;;5.20;2.93;;;;;;;;;;5051269;28;20540;-62
2021/10/14 14:29:30;;;;;;;4.30;2.80;;;;;;;;;;5048149;28;20445;-63
2021/10/14 14:31:58;;;;;;;3.77;3.13;;;;;;;;;;5047187;28;21194;-62
2021/10/14 14:34:24;;;;;;;3.93;2.87;;;;;;;;;;5029689;28;20501;-62
2021/10/14 14:36:50;;;;;;;4.30;2.37;;;;;;;;;;5026168;28;20440;-62
2021/10/14 14:39:16;;;;;;;5.10;2.37;;;;;;;;;;5050773;28;20441;-62